createdAt,value
2022-10-27T00:01:53.934Z,99.90
2022-10-27T00:04:23.422Z,99.90
2022-10-27T00:06:52.962Z,99.90
2022-10-27T00:09:22.865Z,99.90
2022-10-27T00:11:52.199Z,99.90
2022-10-27T00:14:22.457Z,99.90
2022-10-27T00:16:56.046Z,99.90
2022-10-27T00:19:26.979Z,99.90
2022-10-27T00:21:56.587Z,99.90
2022-10-27T00:24:25.629Z,99.90
2022-10-27T00:26:55.389Z,99.90
2022-10-27T00:29:26.279Z,99.90
2022-10-27T00:31:56.014Z,99.90
2022-10-27T00:34:25.625Z,99.90
2022-10-27T00:36:55.322Z,99.90
2022-10-27T00:39:24.825Z,99.90
2022-10-27T00:41:54.937Z,99.90
2022-10-27T00:44:37.990Z,99.90
2022-10-27T00:47:13.754Z,99.90
2022-10-27T00:49:47.208Z,99.90
2022-10-27T00:52:22.369Z,99.90
2022-10-27T00:54:52.673Z,99.90
2022-10-27T00:57:22.353Z,99.90
2022-10-27T00:59:53.385Z,99.90
2022-10-27T01:02:22.424Z,99.90
2022-10-27T01:04:56.516Z,99.90
2022-10-27T01:07:27.384Z,99.90
2022-10-27T01:09:57.069Z,99.90
2022-10-27T01:12:26.173Z,99.90
2022-10-27T01:14:56.853Z,99.90
2022-10-27T01:17:46.012Z,99.90
2022-10-27T01:20:32.877Z,99.90
2022-10-27T01:23:07.333Z,99.90
2022-10-27T01:26:01.729Z,99.90
2022-10-27T01:28:59.379Z,99.90
2022-10-27T01:31:33.904Z,99.90
2022-10-27T01:34:09.777Z,99.90
2022-10-27T01:36:43.782Z,99.90
2022-10-27T01:39:19.924Z,99.90
2022-10-27T01:41:52.324Z,99.90
2022-10-27T01:44:27.408Z,99.90
2022-10-27T01:46:59.448Z,99.90
2022-10-27T01:49:36.752Z,99.90
2022-10-27T01:52:07.328Z,99.90
2022-10-27T01:54:41.372Z,99.90
2022-10-27T01:57:24.995Z,99.90
2022-10-27T02:00:04.136Z,99.90
2022-10-27T02:02:43.791Z,99.90
2022-10-27T02:05:22.242Z,99.90
2022-10-27T02:07:59.983Z,99.90
2022-10-27T02:10:34.344Z,99.90
2022-10-27T02:13:04.816Z,99.90
2022-10-27T02:15:35.661Z,99.90
2022-10-27T02:18:09.168Z,99.90
2022-10-27T02:20:42.515Z,99.90
2022-10-27T02:23:16.678Z,99.90
2022-10-27T02:26:04.815Z,99.90
2022-10-27T02:28:40.059Z,99.90
2022-10-27T02:31:11.297Z,99.90
2022-10-27T02:33:42.364Z,99.90
2022-10-27T02:36:12.944Z,99.90
2022-10-27T02:38:42.230Z,99.90
2022-10-27T02:41:11.354Z,99.90
2022-10-27T02:43:40.024Z,99.90
2022-10-27T02:46:09.220Z,99.90
2022-10-27T02:48:38.062Z,99.90
2022-10-27T02:51:08.333Z,99.90
2022-10-27T02:53:37.618Z,99.90
2022-10-27T02:56:09.419Z,99.90
2022-10-27T02:58:39.062Z,99.90
2022-10-27T03:01:08.533Z,99.90
2022-10-27T03:03:37.326Z,99.90
2022-10-27T03:06:08.540Z,99.90
2022-10-27T03:08:37.955Z,99.90
2022-10-27T03:11:07.446Z,99.90
2022-10-27T03:13:36.798Z,99.90
2022-10-27T03:16:05.946Z,99.90
2022-10-27T03:18:35.302Z,99.90
2022-10-27T03:21:04.471Z,99.90
2022-10-27T03:23:35.898Z,99.90
2022-10-27T03:26:05.262Z,99.90
2022-10-27T03:28:35.779Z,99.90
2022-10-27T03:31:05.637Z,99.90
2022-10-27T03:33:34.910Z,99.90
2022-10-27T03:36:04.062Z,99.90
2022-10-27T03:38:33.573Z,99.90
2022-10-27T03:41:03.910Z,99.90
2022-10-27T03:43:33.417Z,99.90
2022-10-27T03:46:02.796Z,99.90
2022-10-27T03:48:31.965Z,99.90
2022-10-27T03:51:01.306Z,99.90
2022-10-27T03:53:30.650Z,99.90
2022-10-27T03:55:59.353Z,99.90
2022-10-27T03:58:30.078Z,99.90
2022-10-27T04:01:03.473Z,99.90
2022-10-27T04:03:33.362Z,99.90
2022-10-27T04:06:02.471Z,99.90
2022-10-27T04:08:31.451Z,99.90
2022-10-27T04:11:00.673Z,99.90
2022-10-27T04:13:31.377Z,99.90
2022-10-27T04:16:02.320Z,99.90
2022-10-27T04:18:31.487Z,99.90
2022-10-27T04:21:04.897Z,99.90
2022-10-27T04:23:34.684Z,99.90
2022-10-27T04:26:03.664Z,99.90
2022-10-27T04:28:34.168Z,99.90
2022-10-27T04:31:03.425Z,99.90
2022-10-27T04:33:32.653Z,99.90
2022-10-27T04:36:01.980Z,99.90
2022-10-27T04:38:33.453Z,99.90
2022-10-27T04:41:06.129Z,99.90
2022-10-27T04:43:37.370Z,99.90
2022-10-27T04:46:06.705Z,99.90
2022-10-27T04:48:35.469Z,99.90
2022-10-27T04:51:05.666Z,99.90
2022-10-27T04:53:35.021Z,99.90
2022-10-27T04:56:04.105Z,99.90
2022-10-27T04:58:33.300Z,99.90
2022-10-27T05:01:08.979Z,99.90
2022-10-27T05:03:38.692Z,99.90
2022-10-27T05:06:08.656Z,99.90
2022-10-27T05:08:38.049Z,99.90
2022-10-27T05:11:10.283Z,99.90
2022-10-27T05:13:42.166Z,99.90
2022-10-27T05:16:12.785Z,99.90
2022-10-27T05:18:42.408Z,99.90
2022-10-27T05:21:11.688Z,99.90
2022-10-27T05:23:45.250Z,99.90
2022-10-27T05:26:16.579Z,99.90
2022-10-27T05:28:45.936Z,99.90
2022-10-27T05:31:17.344Z,99.90
2022-10-27T05:33:46.709Z,99.90
2022-10-27T05:36:15.735Z,99.90
2022-10-27T05:38:47.428Z,99.90
2022-10-27T05:41:16.557Z,99.90
2022-10-27T05:43:45.700Z,99.90
2022-10-27T05:46:15.975Z,99.90
2022-10-27T05:48:45.269Z,99.90
2022-10-27T05:51:16.770Z,99.90
2022-10-27T05:53:52.391Z,99.90
2022-10-27T05:56:22.110Z,99.90
2022-10-27T05:58:51.875Z,99.90
2022-10-27T06:01:24.372Z,99.90
2022-10-27T06:03:53.189Z,99.90
2022-10-27T06:06:23.983Z,99.90
2022-10-27T06:08:53.260Z,99.90
2022-10-27T06:11:22.844Z,99.90
2022-10-27T06:13:52.188Z,99.90
2022-10-27T06:16:25.793Z,99.90
2022-10-27T06:18:55.694Z,99.90
2022-10-27T06:21:25.417Z,99.90
2022-10-27T06:23:54.465Z,99.90
2022-10-27T06:26:23.390Z,99.90
2022-10-27T06:28:52.719Z,99.90
2022-10-27T06:31:24.188Z,99.90
2022-10-27T06:33:53.242Z,99.90
2022-10-27T06:36:22.526Z,99.90
2022-10-27T06:38:51.286Z,99.90
2022-10-27T06:41:20.247Z,99.90
2022-10-27T06:43:49.830Z,99.90
2022-10-27T06:46:18.574Z,99.90
2022-10-27T06:48:49.642Z,99.90
2022-10-27T06:51:19.193Z,99.90
2022-10-27T06:53:48.686Z,99.90
2022-10-27T06:56:19.562Z,99.90
2022-10-27T06:58:53.195Z,99.90
2022-10-27T07:01:24.012Z,99.90
2022-10-27T07:03:54.839Z,99.90
2022-10-27T07:06:29.515Z,99.90
2022-10-27T07:08:58.699Z,99.90
2022-10-27T07:11:29.037Z,99.90
2022-10-27T07:14:00.037Z,99.90
2022-10-27T07:16:32.879Z,99.90
2022-10-27T07:19:09.379Z,99.90
2022-10-27T07:21:38.639Z,99.90
2022-10-27T07:24:11.970Z,99.90
2022-10-27T07:26:43.452Z,99.90
2022-10-27T07:29:13.069Z,99.90
2022-10-27T07:31:45.293Z,99.90
2022-10-27T07:34:16.113Z,99.90
2022-10-27T07:36:45.367Z,99.90
2022-10-27T07:39:14.457Z,99.90
2022-10-27T07:41:43.512Z,99.90
2022-10-27T07:44:12.724Z,99.90
2022-10-27T07:46:44.069Z,99.90
2022-10-27T07:49:15.657Z,99.90
2022-10-27T07:51:45.096Z,99.90
2022-10-27T07:54:14.186Z,99.90
2022-10-27T07:56:43.158Z,99.90
2022-10-27T08:01:43.272Z,99.90
2022-10-27T08:04:13.156Z,99.90
2022-10-27T08:06:43.858Z,99.90
2022-10-27T08:09:16.430Z,99.90
2022-10-27T08:11:48.571Z,99.90
2022-10-27T08:14:18.159Z,99.90
2022-10-27T08:19:17.259Z,99.90
2022-10-27T08:21:48.692Z,99.90
2022-10-27T08:24:17.889Z,99.90
2022-10-27T08:26:47.088Z,99.90
2022-10-27T08:29:16.592Z,99.90
2022-10-27T08:31:45.979Z,99.30
2022-10-27T08:36:44.347Z,98.50
2022-10-27T08:39:16.547Z,93.70
2022-10-27T08:41:56.434Z,90.30
2022-10-27T08:44:30.721Z,91.40
2022-10-27T08:47:06.030Z,90.10
2022-10-27T08:49:40.490Z,90.10
2022-10-27T08:52:19.156Z,87.20
2022-10-27T08:55:00.714Z,82.70
2022-10-27T09:00:14.699Z,81.20
2022-10-27T09:02:55.771Z,83.10
2022-10-27T09:05:51.296Z,83.90
2022-10-27T09:08:27.995Z,79.40
2022-10-27T09:11:05.062Z,76.80
2022-10-27T09:13:48.622Z,74.20
2022-10-27T09:16:23.806Z,76.80
2022-10-27T09:18:57.299Z,74.00
2022-10-27T09:21:29.105Z,75.00
2022-10-27T09:24:02.609Z,76.70
2022-10-27T09:26:35.619Z,73.90
2022-10-27T09:29:10.421Z,79.30
2022-10-27T09:31:44.426Z,78.30
2022-10-27T09:34:25.950Z,75.70
2022-10-27T09:36:55.426Z,73.00
2022-10-27T09:39:24.822Z,71.70
2022-10-27T09:41:56.596Z,73.20
2022-10-27T09:44:30.080Z,75.20
2022-10-27T09:46:59.325Z,74.00
2022-10-27T09:49:34.049Z,70.00
2022-10-27T09:52:09.738Z,68.50
2022-10-27T09:54:43.334Z,70.00
2022-10-27T09:57:19.670Z,71.50
2022-10-27T09:59:54.516Z,70.90
2022-10-27T10:02:27.523Z,66.50
2022-10-27T10:04:57.052Z,68.00
2022-10-27T10:07:37.558Z,66.50
2022-10-27T10:10:18.349Z,67.20
2022-10-27T10:12:49.357Z,66.80
2022-10-27T10:15:21.676Z,66.90
2022-10-27T10:17:56.634Z,69.00
2022-10-27T10:20:36.054Z,70.50
2022-10-27T10:23:09.625Z,67.80
2022-10-27T10:25:47.498Z,68.20
2022-10-27T10:28:25.080Z,65.30
2022-10-27T10:30:58.001Z,65.70
2022-10-27T10:33:31.172Z,68.30
2022-10-27T10:36:00.247Z,67.70
2022-10-27T10:38:32.444Z,67.40
2022-10-27T10:41:04.818Z,67.70
2022-10-27T10:43:35.124Z,61.70
2022-10-27T10:46:05.095Z,64.40
2022-10-27T10:48:42.343Z,67.60
2022-10-27T10:51:50.460Z,68.50
2022-10-27T10:54:33.255Z,64.40
2022-10-27T10:57:03.742Z,61.60
2022-10-27T10:59:36.543Z,59.50
2022-10-27T11:02:17.681Z,62.20
2022-10-27T11:04:49.204Z,60.10
2022-10-27T11:07:25.411Z,61.60
2022-10-27T11:10:01.798Z,59.30
2022-10-27T11:12:39.170Z,60.10
2022-10-27T11:15:20.082Z,63.60
2022-10-27T11:17:52.767Z,60.30
2022-10-27T11:20:25.935Z,63.50
2022-10-27T11:22:56.266Z,63.80
2022-10-27T11:25:30.278Z,61.70
2022-10-27T11:28:05.310Z,61.00
2022-10-27T11:30:40.754Z,59.90
2022-10-27T11:33:18.778Z,59.70
2022-10-27T11:35:53.859Z,60.10
2022-10-27T11:38:35.678Z,59.30
2022-10-27T11:41:10.590Z,58.20
2022-10-27T11:43:45.545Z,59.10
2022-10-27T11:46:22.686Z,64.40
2022-10-27T11:48:56.134Z,67.30
2022-10-27T11:51:31.133Z,65.80
2022-10-27T11:54:00.695Z,64.10
2022-10-27T11:56:43.442Z,61.70
2022-10-27T11:59:23.161Z,63.20
2022-10-27T12:02:07.649Z,65.80
2022-10-27T12:04:48.212Z,69.70
2022-10-27T12:07:34.371Z,70.60
2022-10-27T12:10:18.226Z,70.00
2022-10-27T12:12:50.321Z,68.20
2022-10-27T12:15:26.657Z,62.80
2022-10-27T12:18:03.755Z,63.40
2022-10-27T12:20:43.982Z,64.60
2022-10-27T12:23:17.449Z,62.40
2022-10-27T12:25:54.602Z,63.00
2022-10-27T12:28:28.160Z,59.90
2022-10-27T12:31:01.041Z,59.90
2022-10-27T12:33:36.712Z,61.40
2022-10-27T12:36:11.608Z,61.60
2022-10-27T12:38:48.164Z,61.20
2022-10-27T12:41:26.712Z,61.20
2022-10-27T12:44:04.672Z,62.10
2022-10-27T12:46:54.180Z,59.90
2022-10-27T12:49:32.128Z,59.90
2022-10-27T12:52:06.977Z,60.10
2022-10-27T12:54:52.986Z,61.20
2022-10-27T12:57:30.491Z,63.10
2022-10-27T13:00:05.262Z,63.20
2022-10-27T13:02:40.158Z,64.20
2022-10-27T13:05:37.063Z,62.60
2022-10-27T13:08:51.156Z,63.10
2022-10-27T13:11:52.465Z,63.30
2022-10-27T13:15:00.503Z,61.70
2022-10-27T13:17:40.755Z,66.00
2022-10-27T13:20:20.821Z,65.60
2022-10-27T13:22:54.027Z,66.80
2022-10-27T13:25:28.227Z,67.20
2022-10-27T13:28:06.795Z,69.40
2022-10-27T13:30:38.229Z,67.80
2022-10-27T13:33:34.054Z,66.80
2022-10-27T13:36:21.658Z,65.70
2022-10-27T13:38:52.222Z,66.70
2022-10-27T13:41:51.528Z,68.80
2022-10-27T13:44:29.007Z,69.90
2022-10-27T13:47:14.199Z,72.20
2022-10-27T13:49:54.120Z,72.90
2022-10-27T13:52:27.183Z,73.90
2022-10-27T13:55:02.638Z,77.60
2022-10-27T13:58:03.823Z,77.40
2022-10-27T14:01:20.786Z,79.40
2022-10-27T14:04:21.748Z,78.70
2022-10-27T14:06:59.342Z,80.90
2022-10-27T14:09:46.106Z,84.20
2022-10-27T14:12:20.503Z,84.30
2022-10-27T14:14:56.073Z,86.70
2022-10-27T14:17:29.028Z,87.60
2022-10-27T14:20:02.945Z,87.70
2022-10-27T14:22:38.476Z,90.30
2022-10-27T14:25:19.584Z,90.90
2022-10-27T14:27:49.308Z,91.60
2022-10-27T14:30:22.937Z,92.90
2022-10-27T14:32:52.021Z,93.80
2022-10-27T14:35:28.501Z,94.50
2022-10-27T14:38:03.508Z,94.60
2022-10-27T14:40:41.276Z,94.40
2022-10-27T14:43:16.801Z,93.70
2022-10-27T14:45:46.645Z,93.50
2022-10-27T14:48:25.717Z,93.90
2022-10-27T14:50:55.593Z,94.70
2022-10-27T14:53:33.299Z,95.70
2022-10-27T14:56:20.219Z,97.20
2022-10-27T14:58:54.761Z,99.00
2022-10-27T15:01:35.007Z,99.90
2022-10-27T15:04:17.649Z,99.90
2022-10-27T15:06:47.862Z,99.90
2022-10-27T15:09:29.380Z,99.90
2022-10-27T15:12:01.777Z,99.90
2022-10-27T15:14:34.341Z,99.90
2022-10-27T15:17:03.686Z,99.90
2022-10-27T15:19:33.540Z,99.90
2022-10-27T15:22:05.021Z,99.90
2022-10-27T15:24:34.648Z,99.90
2022-10-27T15:27:06.583Z,99.90
2022-10-27T15:29:50.965Z,99.90
2022-10-27T15:32:29.340Z,99.90
2022-10-27T15:34:58.347Z,99.90
2022-10-27T15:37:34.345Z,99.90
2022-10-27T15:40:44.541Z,99.90
2022-10-27T15:43:33.306Z,99.90
2022-10-27T15:46:11.868Z,99.90
2022-10-27T15:48:42.028Z,99.90
2022-10-27T15:51:14.787Z,99.90
2022-10-27T15:53:50.543Z,99.90
2022-10-27T15:56:39.967Z,99.90
2022-10-27T15:59:16.951Z,99.90
2022-10-27T16:01:47.530Z,99.90
2022-10-27T16:04:31.495Z,99.90
2022-10-27T16:07:34.204Z,99.90
2022-10-27T16:10:03.442Z,99.90
2022-10-27T16:12:44.126Z,99.90
2022-10-27T16:15:22.387Z,99.90
2022-10-27T16:17:55.133Z,99.90
2022-10-27T16:20:28.492Z,99.90
2022-10-27T16:22:57.823Z,99.90
2022-10-27T16:25:31.587Z,99.90
2022-10-27T16:28:04.394Z,99.90
2022-10-27T16:30:35.639Z,99.90
2022-10-27T16:33:05.907Z,99.90
2022-10-27T16:35:36.999Z,99.90
2022-10-27T16:38:05.861Z,99.90
2022-10-27T16:40:38.172Z,99.90
2022-10-27T16:43:08.791Z,99.90
2022-10-27T16:45:44.167Z,99.90
2022-10-27T16:48:14.863Z,99.90
2022-10-27T16:50:43.999Z,99.90
2022-10-27T16:53:14.123Z,99.90
2022-10-27T16:55:43.642Z,99.90
2022-10-27T16:58:12.628Z,99.90
2022-10-27T17:00:44.836Z,99.90
2022-10-27T17:03:16.428Z,99.90
2022-10-27T17:05:46.063Z,99.90
2022-10-27T17:08:15.263Z,99.90
2022-10-27T17:10:44.797Z,99.90
2022-10-27T17:13:13.577Z,99.90
2022-10-27T17:15:43.802Z,99.90
2022-10-27T17:18:13.811Z,99.90
2022-10-27T17:20:43.093Z,99.90
2022-10-27T17:23:12.005Z,99.90
2022-10-27T17:25:40.834Z,99.90
2022-10-27T17:28:10.321Z,99.90
2022-10-27T17:30:39.552Z,99.90
2022-10-27T17:33:10.549Z,99.90
2022-10-27T17:35:39.690Z,99.90
2022-10-27T17:38:09.174Z,99.90
2022-10-27T17:40:39.653Z,99.90
2022-10-27T17:43:10.521Z,99.90
2022-10-27T17:45:40.670Z,99.90
2022-10-27T17:48:13.023Z,99.90
2022-10-27T17:50:42.226Z,99.90
2022-10-27T17:53:11.072Z,99.90
2022-10-27T17:55:40.700Z,99.90
2022-10-27T17:58:10.693Z,99.90
2022-10-27T18:00:42.774Z,99.90
2022-10-27T18:03:13.469Z,99.90
2022-10-27T18:05:43.042Z,99.90
2022-10-27T18:08:12.319Z,99.90
2022-10-27T18:10:43.085Z,99.90
2022-10-27T18:13:12.766Z,99.90
2022-10-27T18:15:42.115Z,99.90
2022-10-27T18:18:13.053Z,99.90
2022-10-27T18:20:42.817Z,99.90
2022-10-27T18:23:13.924Z,99.90
2022-10-27T18:25:43.561Z,99.90
2022-10-27T18:28:13.512Z,99.90
2022-10-27T18:30:42.701Z,99.90
2022-10-27T18:33:14.092Z,99.90
2022-10-27T18:35:43.261Z,99.90
2022-10-27T18:38:12.412Z,99.90
2022-10-27T18:40:41.226Z,99.90
2022-10-27T18:43:09.984Z,99.90
2022-10-27T18:45:39.093Z,99.90
2022-10-27T18:48:08.185Z,99.90
2022-10-27T18:50:40.141Z,99.90
2022-10-27T18:53:11.395Z,99.90
2022-10-27T18:55:40.957Z,99.90
2022-10-27T18:58:09.873Z,99.90
2022-10-27T19:00:39.116Z,99.90
2022-10-27T19:03:07.861Z,99.90
2022-10-27T19:05:38.395Z,99.90
2022-10-27T19:08:07.516Z,99.90
2022-10-27T19:10:38.075Z,99.90
2022-10-27T19:13:07.692Z,99.90
2022-10-27T19:15:37.239Z,99.90
2022-10-27T19:18:07.240Z,99.90
2022-10-27T19:20:38.072Z,99.90
2022-10-27T19:23:06.898Z,99.90
2022-10-27T19:25:35.631Z,99.90
2022-10-27T19:28:04.687Z,99.90
2022-10-27T19:30:33.934Z,99.90
2022-10-27T19:33:02.959Z,99.90
2022-10-27T19:35:31.679Z,99.90
2022-10-27T19:38:04.137Z,99.90
2022-10-27T19:40:33.871Z,99.90
2022-10-27T19:43:03.503Z,99.90
2022-10-27T19:45:35.811Z,99.90
2022-10-27T19:48:06.867Z,99.90
2022-10-27T19:50:36.659Z,99.90
2022-10-27T19:53:08.048Z,99.90
2022-10-27T19:55:37.726Z,99.90
2022-10-27T19:58:07.659Z,99.90
2022-10-27T20:00:38.099Z,99.90
2022-10-27T20:03:07.375Z,99.90
2022-10-27T20:05:37.007Z,99.90
2022-10-27T20:08:09.464Z,99.90
2022-10-27T20:10:41.978Z,99.90
2022-10-27T20:13:12.203Z,99.90
2022-10-27T20:15:41.342Z,99.90
2022-10-27T20:18:10.673Z,99.90
2022-10-27T20:20:40.230Z,99.90
2022-10-27T20:23:11.398Z,99.90
2022-10-27T20:26:10.691Z,99.90
2022-10-27T20:28:55.226Z,99.90
2022-10-27T20:31:24.812Z,99.90
2022-10-27T20:33:54.147Z,99.90
2022-10-27T20:36:24.321Z,99.90
2022-10-27T20:39:00.477Z,99.90
2022-10-27T20:41:30.750Z,99.90
2022-10-27T20:44:02.357Z,99.90
2022-10-27T20:46:47.361Z,99.90
2022-10-27T20:49:17.337Z,99.90
2022-10-27T20:51:46.491Z,99.90
2022-10-27T20:54:17.608Z,99.90
2022-10-27T20:56:49.450Z,99.90
2022-10-27T20:59:21.366Z,99.90
2022-10-27T21:01:54.489Z,99.90
2022-10-27T21:04:23.838Z,99.90
2022-10-27T21:06:53.960Z,99.90
2022-10-27T21:09:25.653Z,99.90
2022-10-27T21:11:56.088Z,99.90
2022-10-27T21:14:25.596Z,99.90
2022-10-27T21:16:54.940Z,99.90
2022-10-27T21:19:24.621Z,99.90
2022-10-27T21:21:56.594Z,99.90
2022-10-27T21:24:27.498Z,99.90
2022-10-27T21:26:56.653Z,99.90
2022-10-27T21:29:28.500Z,99.90
2022-10-27T21:31:58.868Z,99.90
2022-10-27T21:34:28.022Z,99.90
2022-10-27T21:36:57.080Z,99.90
2022-10-27T21:39:31.216Z,99.90
2022-10-27T21:42:00.947Z,99.90
2022-10-27T21:44:30.687Z,99.90
2022-10-27T21:47:00.676Z,99.90
2022-10-27T21:49:30.200Z,99.90
2022-10-27T21:52:03.595Z,99.90
2022-10-27T21:54:34.296Z,99.90
2022-10-27T21:57:06.011Z,99.90
2022-10-27T21:59:35.423Z,99.90
2022-10-27T22:02:04.989Z,99.90
2022-10-27T22:04:34.859Z,99.90
2022-10-27T22:07:04.357Z,99.90
2022-10-27T22:09:34.936Z,99.90
2022-10-27T22:12:04.947Z,99.90
2022-10-27T22:14:34.071Z,99.90
2022-10-27T22:17:02.933Z,99.90
2022-10-27T22:19:33.151Z,99.90
2022-10-27T22:24:54.112Z,99.90
2022-10-27T22:27:27.801Z,99.90
2022-10-27T22:29:57.235Z,99.90
2022-10-27T22:32:26.531Z,99.90
2022-10-27T22:34:56.095Z,99.90
2022-10-27T22:37:24.759Z,99.90
2022-10-27T22:39:55.775Z,99.90
2022-10-27T22:42:25.079Z,99.90
2022-10-27T22:44:53.991Z,99.90
2022-10-27T22:47:22.743Z,99.90
2022-10-27T22:49:53.119Z,99.90
2022-10-27T22:52:24.594Z,99.90
2022-10-27T22:54:55.361Z,99.90
2022-10-27T22:57:24.138Z,99.90
2022-10-27T22:59:53.651Z,99.90
2022-10-27T23:02:22.654Z,99.90
2022-10-27T23:04:52.962Z,99.90
2022-10-27T23:07:22.361Z,99.90
2022-10-27T23:09:51.803Z,99.90
2022-10-27T23:12:22.788Z,99.90
2022-10-27T23:14:51.795Z,99.90
2022-10-27T23:17:21.402Z,99.90
2022-10-27T23:19:50.115Z,99.90
2022-10-27T23:22:19.163Z,99.90
2022-10-27T23:24:48.309Z,99.90
2022-10-27T23:27:16.992Z,99.90
2022-10-27T23:29:47.570Z,99.90
2022-10-27T23:32:16.326Z,99.90
2022-10-27T23:34:45.490Z,99.90
2022-10-27T23:37:14.770Z,99.90
2022-10-27T23:39:44.066Z,99.90
2022-10-27T23:42:13.061Z,99.90
2022-10-27T23:44:43.322Z,99.90
2022-10-27T23:47:13.465Z,99.90
2022-10-27T23:49:42.933Z,99.90
2022-10-27T23:52:11.701Z,99.90
2022-10-27T23:54:43.108Z,99.90
2022-10-27T23:57:15.425Z,99.90
2022-10-27T23:59:44.190Z,99.90
